sensor_id;sensor_type;location;lat;lon;timestamp;temperature;humidity
4187;DHT22;2107;52.306;10.484;2022-11-20T00:01:25;-3.80;99.90
4187;DHT22;2107;52.306;10.484;2022-11-20T00:03:53;-3.90;99.90
4187;DHT22;2107;52.306;10.484;2022-11-20T00:06:22;-3.90;99.90
4187;DHT22;2107;52.306;10.484;2022-11-20T00:08:50;-3.80;99.90
4187;DHT22;2107;52.306;10.484;2022-11-20T00:11:20;-3.80;99.90
4187;DHT22;2107;52.306;10.484;2022-11-20T00:13:48;-3.90;99.90
4187;DHT22;2107;52.306;10.484;2022-11-20T00:16:18;-3.80;99.90
4187;DHT22;2107;52.306;10.484;2022-11-20T00:18:45;-3.70;99.90
4187;DHT22;2107;52.306;10.484;2022-11-20T00:21:14;-3.60;99.90
4187;DHT22;2107;52.306;10.484;2022-11-20T00:23:42;-3.70;99.90
4187;DHT22;2107;52.306;10.484;2022-11-20T00:26:12;-3.60;99.90
4187;DHT22;2107;52.306;10.484;2022-11-20T00:28:39;-3.70;99.90
4187;DHT22;2107;52.306;10.484;2022-11-20T00:31:07;-3.70;99.90
4187;DHT22;2107;52.306;10.484;2022-11-20T00:33:35;-3.60;99.90
4187;DHT22;2107;52.306;10.484;2022-11-20T00:36:02;-3.60;99.90
4187;DHT22;2107;52.306;10.484;2022-11-20T00:38:30;-3.60;99.90
4187;DHT22;2107;52.306;10.484;2022-11-20T00:40:59;-3.70;99.90
4187;DHT22;2107;52.306;10.484;2022-11-20T00:43:27;-3.70;99.90
4187;DHT22;2107;52.306;10.484;2022-11-20T00:45:57;-3.60;99.90
4187;DHT22;2107;52.306;10.484;2022-11-20T00:48:24;-3.60;99.90
4187;DHT22;2107;52.306;10.484;2022-11-20T00:50:51;-3.60;99.90
4187;DHT22;2107;52.306;10.484;2022-11-20T00:53:18;-3.70;99.90
4187;DHT22;2107;52.306;10.484;2022-11-20T00:55:53;-3.70;99.90
4187;DHT22;2107;52.306;10.484;2022-11-20T00:58:22;-3.70;99.90
4187;DHT22;2107;52.306;10.484;2022-11-20T01:00:49;-3.70;99.90
4187;DHT22;2107;52.306;10.484;2022-11-20T01:03:16;-3.80;99.90
4187;DHT22;2107;52.306;10.484;2022-11-20T01:05:43;-3.90;99.90
4187;DHT22;2107;52.306;10.484;2022-11-20T01:08:10;-3.80;99.90
4187;DHT22;2107;52.306;10.484;2022-11-20T01:10:36;-3.80;99.90
4187;DHT22;2107;52.306;10.484;2022-11-20T01:13:03;-3.80;99.90
4187;DHT22;2107;52.306;10.484;2022-11-20T01:15:49;-3.80;99.90
4187;DHT22;2107;52.306;10.484;2022-11-20T01:18:16;-3.90;99.90
4187;DHT22;2107;52.306;10.484;2022-11-20T01:20:43;-4.00;99.90
4187;DHT22;2107;52.306;10.484;2022-11-20T01:23:10;-3.90;99.90
4187;DHT22;2107;52.306;10.484;2022-11-20T01:25:36;-3.80;99.90
4187;DHT22;2107;52.306;10.484;2022-11-20T01:28:03;-3.80;99.90
4187;DHT22;2107;52.306;10.484;2022-11-20T01:30:30;-3.80;99.90
4187;DHT22;2107;52.306;10.484;2022-11-20T01:32:58;-3.80;99.90
4187;DHT22;2107;52.306;10.484;2022-11-20T01:35:25;-3.70;99.90
4187;DHT22;2107;52.306;10.484;2022-11-20T01:37:52;-3.70;99.90
4187;DHT22;2107;52.306;10.484;2022-11-20T01:40:19;-3.60;99.90
4187;DHT22;2107;52.306;10.484;2022-11-20T01:42:53;-3.50;99.90
4187;DHT22;2107;52.306;10.484;2022-11-20T01:45:58;-3.50;99.90
4187;DHT22;2107;52.306;10.484;2022-11-20T01:48:30;-3.40;99.90
4187;DHT22;2107;52.306;10.484;2022-11-20T01:50:58;-3.40;99.90
4187;DHT22;2107;52.306;10.484;2022-11-20T01:53:30;-3.40;99.90
4187;DHT22;2107;52.306;10.484;2022-11-20T01:55:59;-3.30;99.90
4187;DHT22;2107;52.306;10.484;2022-11-20T01:58:36;-3.30;99.90
4187;DHT22;2107;52.306;10.484;2022-11-20T02:01:05;-3.20;99.90
4187;DHT22;2107;52.306;10.484;2022-11-20T02:03:33;-3.20;99.90
4187;DHT22;2107;52.306;10.484;2022-11-20T02:06:05;-3.10;99.90
4187;DHT22;2107;52.306;10.484;2022-11-20T02:08:35;-3.10;99.90
4187;DHT22;2107;52.306;10.484;2022-11-20T02:11:03;-3.10;99.90
4187;DHT22;2107;52.306;10.484;2022-11-20T02:13:30;-3.20;99.90
4187;DHT22;2107;52.306;10.484;2022-11-20T02:16:14;-3.10;99.90
4187;DHT22;2107;52.306;10.484;2022-11-20T02:18:44;-3.10;99.90
4187;DHT22;2107;52.306;10.484;2022-11-20T02:21:27;-3.00;99.90
4187;DHT22;2107;52.306;10.484;2022-11-20T02:24:02;-2.90;99.90
4187;DHT22;2107;52.306;10.484;2022-11-20T02:26:32;-2.80;99.90
4187;DHT22;2107;52.306;10.484;2022-11-20T02:29:01;-2.70;99.90
4187;DHT22;2107;52.306;10.484;2022-11-20T02:31:28;-2.60;99.90
4187;DHT22;2107;52.306;10.484;2022-11-20T02:33:56;-2.70;99.90
4187;DHT22;2107;52.306;10.484;2022-11-20T02:36:25;-2.70;99.90
4187;DHT22;2107;52.306;10.484;2022-11-20T02:38:52;-2.70;99.90
4187;DHT22;2107;52.306;10.484;2022-11-20T02:41:21;-2.50;99.90
4187;DHT22;2107;52.306;10.484;2022-11-20T02:43:48;-2.40;99.90
4187;DHT22;2107;52.306;10.484;2022-11-20T02:46:15;-2.30;99.90
4187;DHT22;2107;52.306;10.484;2022-11-20T02:48:42;-2.20;99.90
4187;DHT22;2107;52.306;10.484;2022-11-20T02:51:09;-2.10;99.90
4187;DHT22;2107;52.306;10.484;2022-11-20T02:53:36;-2.10;99.90
4187;DHT22;2107;52.306;10.484;2022-11-20T02:56:03;-2.10;99.90
4187;DHT22;2107;52.306;10.484;2022-11-20T02:58:31;-2.10;99.90
4187;DHT22;2107;52.306;10.484;2022-11-20T03:00:58;-2.00;99.90
4187;DHT22;2107;52.306;10.484;2022-11-20T03:03:25;-2.20;99.90
4187;DHT22;2107;52.306;10.484;2022-11-20T03:05:52;-2.30;99.90
4187;DHT22;2107;52.306;10.484;2022-11-20T03:08:18;-2.40;99.90
4187;DHT22;2107;52.306;10.484;2022-11-20T03:10:45;-2.30;99.90
4187;DHT22;2107;52.306;10.484;2022-11-20T03:13:12;-2.30;99.90
4187;DHT22;2107;52.306;10.484;2022-11-20T03:15:40;-2.40;99.90
4187;DHT22;2107;52.306;10.484;2022-11-20T03:18:07;-2.30;99.90
4187;DHT22;2107;52.306;10.484;2022-11-20T03:20:34;-2.30;99.90
4187;DHT22;2107;52.306;10.484;2022-11-20T03:23:01;-2.40;99.90
4187;DHT22;2107;52.306;10.484;2022-11-20T03:25:28;-2.40;99.90
4187;DHT22;2107;52.306;10.484;2022-11-20T03:27:55;-2.50;99.90
4187;DHT22;2107;52.306;10.484;2022-11-20T03:30:23;-2.80;99.90
4187;DHT22;2107;52.306;10.484;2022-11-20T03:32:54;-2.90;99.90
4187;DHT22;2107;52.306;10.484;2022-11-20T03:35:21;-2.90;99.90
4187;DHT22;2107;52.306;10.484;2022-11-20T03:37:48;-2.90;99.90
4187;DHT22;2107;52.306;10.484;2022-11-20T03:40:14;-2.80;99.90
4187;DHT22;2107;52.306;10.484;2022-11-20T03:42:41;-3.00;99.90
4187;DHT22;2107;52.306;10.484;2022-11-20T03:45:11;-3.00;99.90
4187;DHT22;2107;52.306;10.484;2022-11-20T03:47:39;-3.10;99.90
4187;DHT22;2107;52.306;10.484;2022-11-20T03:50:08;-3.20;99.90
4187;DHT22;2107;52.306;10.484;2022-11-20T03:52:35;-3.20;99.90
4187;DHT22;2107;52.306;10.484;2022-11-20T03:55:02;-3.20;99.90
4187;DHT22;2107;52.306;10.484;2022-11-20T03:57:29;-3.20;99.90
4187;DHT22;2107;52.306;10.484;2022-11-20T03:59:56;-3.30;99.90
4187;DHT22;2107;52.306;10.484;2022-11-20T04:02:23;-3.30;99.90
4187;DHT22;2107;52.306;10.484;2022-11-20T04:04:49;-3.10;99.90
4187;DHT22;2107;52.306;10.484;2022-11-20T04:07:18;-3.40;99.90
4187;DHT22;2107;52.306;10.484;2022-11-20T04:09:44;-3.50;99.90
4187;DHT22;2107;52.306;10.484;2022-11-20T04:12:11;-3.40;99.90
4187;DHT22;2107;52.306;10.484;2022-11-20T04:14:38;-3.40;99.90
4187;DHT22;2107;52.306;10.484;2022-11-20T04:17:05;-3.30;99.90
4187;DHT22;2107;52.306;10.484;2022-11-20T04:19:32;-3.40;99.90
4187;DHT22;2107;52.306;10.484;2022-11-20T04:21:59;-3.50;99.90
4187;DHT22;2107;52.306;10.484;2022-11-20T04:24:27;-3.60;99.90
4187;DHT22;2107;52.306;10.484;2022-11-20T04:26:54;-3.70;99.90
4187;DHT22;2107;52.306;10.484;2022-11-20T04:29:21;-3.70;99.90
4187;DHT22;2107;52.306;10.484;2022-11-20T04:31:48;-3.70;99.90
4187;DHT22;2107;52.306;10.484;2022-11-20T04:34:15;-3.70;99.90
4187;DHT22;2107;52.306;10.484;2022-11-20T04:36:42;-3.80;99.90
4187;DHT22;2107;52.306;10.484;2022-11-20T04:39:12;-3.80;99.90
4187;DHT22;2107;52.306;10.484;2022-11-20T04:41:42;-3.80;99.90
4187;DHT22;2107;52.306;10.484;2022-11-20T04:44:09;-3.90;99.90
4187;DHT22;2107;52.306;10.484;2022-11-20T04:46:37;-3.80;99.90
4187;DHT22;2107;52.306;10.484;2022-11-20T04:49:04;-3.90;99.90
4187;DHT22;2107;52.306;10.484;2022-11-20T04:51:31;-3.80;99.90
4187;DHT22;2107;52.306;10.484;2022-11-20T04:53:59;-3.80;99.90
4187;DHT22;2107;52.306;10.484;2022-11-20T04:56:26;-3.80;99.90
4187;DHT22;2107;52.306;10.484;2022-11-20T04:58:54;-3.80;99.90
4187;DHT22;2107;52.306;10.484;2022-11-20T05:01:22;-3.80;99.90
4187;DHT22;2107;52.306;10.484;2022-11-20T05:03:49;-3.80;99.90
4187;DHT22;2107;52.306;10.484;2022-11-20T05:06:19;-3.70;99.90
4187;DHT22;2107;52.306;10.484;2022-11-20T05:08:46;-3.60;99.90
4187;DHT22;2107;52.306;10.484;2022-11-20T05:11:15;-3.60;99.90
4187;DHT22;2107;52.306;10.484;2022-11-20T05:13:42;-3.60;99.90
4187;DHT22;2107;52.306;10.484;2022-11-20T05:16:12;-3.60;99.90
4187;DHT22;2107;52.306;10.484;2022-11-20T05:18:40;-3.50;99.90
4187;DHT22;2107;52.306;10.484;2022-11-20T05:21:08;-3.50;99.90
4187;DHT22;2107;52.306;10.484;2022-11-20T05:23:35;-3.40;99.90
4187;DHT22;2107;52.306;10.484;2022-11-20T05:26:03;-3.40;99.90
4187;DHT22;2107;52.306;10.484;2022-11-20T05:28:31;-3.40;99.90
4187;DHT22;2107;52.306;10.484;2022-11-20T05:31:05;-3.40;99.90
4187;DHT22;2107;52.306;10.484;2022-11-20T05:33:34;-3.30;99.90
4187;DHT22;2107;52.306;10.484;2022-11-20T05:36:01;-3.30;99.90
4187;DHT22;2107;52.306;10.484;2022-11-20T05:38:28;-3.30;99.90
4187;DHT22;2107;52.306;10.484;2022-11-20T05:41:03;-3.30;99.90
4187;DHT22;2107;52.306;10.484;2022-11-20T05:43:32;-3.20;99.90
4187;DHT22;2107;52.306;10.484;2022-11-20T05:45:59;-3.20;99.90
4187;DHT22;2107;52.306;10.484;2022-11-20T05:48:26;-3.20;99.90
4187;DHT22;2107;52.306;10.484;2022-11-20T05:50:54;-3.00;99.90
4187;DHT22;2107;52.306;10.484;2022-11-20T05:53:23;-3.00;99.90
4187;DHT22;2107;52.306;10.484;2022-11-20T05:55:56;-2.90;99.90
4187;DHT22;2107;52.306;10.484;2022-11-20T05:58:23;-2.90;99.90
4187;DHT22;2107;52.306;10.484;2022-11-20T06:00:50;-2.70;99.90
4187;DHT22;2107;52.306;10.484;2022-11-20T06:03:17;-2.70;99.90
4187;DHT22;2107;52.306;10.484;2022-11-20T06:05:44;-2.70;99.90
4187;DHT22;2107;52.306;10.484;2022-11-20T06:08:12;-2.60;99.90
4187;DHT22;2107;52.306;10.484;2022-11-20T06:10:39;-2.60;99.90
4187;DHT22;2107;52.306;10.484;2022-11-20T06:13:06;-2.60;99.90
4187;DHT22;2107;52.306;10.484;2022-11-20T06:15:33;-2.60;99.90
4187;DHT22;2107;52.306;10.484;2022-11-20T06:18:00;-2.60;99.90
4187;DHT22;2107;52.306;10.484;2022-11-20T06:20:26;-2.60;99.90
4187;DHT22;2107;52.306;10.484;2022-11-20T06:22:53;-2.70;99.90
4187;DHT22;2107;52.306;10.484;2022-11-20T06:25:21;-2.60;99.90
4187;DHT22;2107;52.306;10.484;2022-11-20T06:27:48;-2.60;99.90
4187;DHT22;2107;52.306;10.484;2022-11-20T06:30:15;-2.60;99.90
4187;DHT22;2107;52.306;10.484;2022-11-20T06:32:42;-2.60;99.90
4187;DHT22;2107;52.306;10.484;2022-11-20T06:35:10;-2.50;99.90
4187;DHT22;2107;52.306;10.484;2022-11-20T06:37:36;-2.40;99.90
4187;DHT22;2107;52.306;10.484;2022-11-20T06:40:04;-2.50;99.90
4187;DHT22;2107;52.306;10.484;2022-11-20T06:42:33;-2.50;99.90
4187;DHT22;2107;52.306;10.484;2022-11-20T06:45:00;-2.40;99.90
4187;DHT22;2107;52.306;10.484;2022-11-20T06:47:27;-2.40;99.90
4187;DHT22;2107;52.306;10.484;2022-11-20T06:49:54;-2.30;99.90
4187;DHT22;2107;52.306;10.484;2022-11-20T06:52:21;-2.30;99.90
4187;DHT22;2107;52.306;10.484;2022-11-20T06:54:47;-2.40;99.90
4187;DHT22;2107;52.306;10.484;2022-11-20T06:57:14;-2.40;99.90
4187;DHT22;2107;52.306;10.484;2022-11-20T06:59:43;-2.30;99.90
4187;DHT22;2107;52.306;10.484;2022-11-20T07:02:10;-2.30;99.90
4187;DHT22;2107;52.306;10.484;2022-11-20T07:04:37;-2.20;99.90
4187;DHT22;2107;52.306;10.484;2022-11-20T07:07:05;-2.30;99.90
4187;DHT22;2107;52.306;10.484;2022-11-20T07:09:32;-2.30;99.90
4187;DHT22;2107;52.306;10.484;2022-11-20T07:11:59;-2.30;99.90
4187;DHT22;2107;52.306;10.484;2022-11-20T07:14:26;-2.20;99.90
4187;DHT22;2107;52.306;10.484;2022-11-20T07:16:54;-2.20;99.90
4187;DHT22;2107;52.306;10.484;2022-11-20T07:19:21;-2.20;99.90
4187;DHT22;2107;52.306;10.484;2022-11-20T07:21:48;-2.20;99.90
4187;DHT22;2107;52.306;10.484;2022-11-20T07:24:15;-2.20;99.90
4187;DHT22;2107;52.306;10.484;2022-11-20T07:26:42;-2.20;99.90
4187;DHT22;2107;52.306;10.484;2022-11-20T07:29:08;-2.10;99.90
4187;DHT22;2107;52.306;10.484;2022-11-20T07:31:35;-2.10;99.90
4187;DHT22;2107;52.306;10.484;2022-11-20T07:34:03;-2.10;99.90
4187;DHT22;2107;52.306;10.484;2022-11-20T07:36:30;-2.10;99.90
4187;DHT22;2107;52.306;10.484;2022-11-20T07:38:57;-2.10;99.90
4187;DHT22;2107;52.306;10.484;2022-11-20T07:41:24;-2.10;99.90
4187;DHT22;2107;52.306;10.484;2022-11-20T07:43:51;-2.10;99.90
4187;DHT22;2107;52.306;10.484;2022-11-20T07:46:18;-2.10;99.90
4187;DHT22;2107;52.306;10.484;2022-11-20T07:48:45;-2.10;99.90
4187;DHT22;2107;52.306;10.484;2022-11-20T07:51:13;-2.10;99.90
4187;DHT22;2107;52.306;10.484;2022-11-20T07:53:40;-2.10;99.90
4187;DHT22;2107;52.306;10.484;2022-11-20T07:56:07;-2.10;99.90
4187;DHT22;2107;52.306;10.484;2022-11-20T07:58:34;-2.10;99.90
4187;DHT22;2107;52.306;10.484;2022-11-20T08:01:04;-2.10;99.90
4187;DHT22;2107;52.306;10.484;2022-11-20T08:03:31;-2.00;99.90
4187;DHT22;2107;52.306;10.484;2022-11-20T08:05:58;-2.00;99.90
4187;DHT22;2107;52.306;10.484;2022-11-20T08:08:27;-1.90;99.90
4187;DHT22;2107;52.306;10.484;2022-11-20T08:10:56;-1.90;99.90
4187;DHT22;2107;52.306;10.484;2022-11-20T08:13:43;-1.90;99.90
4187;DHT22;2107;52.306;10.484;2022-11-20T08:16:28;-1.90;99.90
4187;DHT22;2107;52.306;10.484;2022-11-20T08:18:55;-1.80;99.90
4187;DHT22;2107;52.306;10.484;2022-11-20T08:21:21;-1.80;99.90
4187;DHT22;2107;52.306;10.484;2022-11-20T08:23:50;-1.70;99.90
4187;DHT22;2107;52.306;10.484;2022-11-20T08:26:17;-1.70;99.90
4187;DHT22;2107;52.306;10.484;2022-11-20T08:28:44;-1.60;99.90
4187;DHT22;2107;52.306;10.484;2022-11-20T08:31:12;-1.50;99.90
4187;DHT22;2107;52.306;10.484;2022-11-20T08:33:39;-1.40;99.90
4187;DHT22;2107;52.306;10.484;2022-11-20T08:36:06;-1.40;99.90
4187;DHT22;2107;52.306;10.484;2022-11-20T08:38:33;-1.30;99.90
4187;DHT22;2107;52.306;10.484;2022-11-20T08:41:03;-1.30;99.90
4187;DHT22;2107;52.306;10.484;2022-11-20T08:44:01;-1.30;99.90
4187;DHT22;2107;52.306;10.484;2022-11-20T08:46:33;-1.20;99.90
4187;DHT22;2107;52.306;10.484;2022-11-20T08:49:02;-1.30;99.90
4187;DHT22;2107;52.306;10.484;2022-11-20T08:51:29;-1.20;99.90
4187;DHT22;2107;52.306;10.484;2022-11-20T08:53:56;-1.30;99.90
4187;DHT22;2107;52.306;10.484;2022-11-20T08:56:25;-1.20;99.90
4187;DHT22;2107;52.306;10.484;2022-11-20T08:58:52;-1.20;99.90
4187;DHT22;2107;52.306;10.484;2022-11-20T09:01:19;-1.20;99.90
4187;DHT22;2107;52.306;10.484;2022-11-20T09:03:47;-1.20;99.90
4187;DHT22;2107;52.306;10.484;2022-11-20T09:06:14;-1.20;99.90
4187;DHT22;2107;52.306;10.484;2022-11-20T09:08:41;-1.30;99.90
4187;DHT22;2107;52.306;10.484;2022-11-20T09:11:08;-1.40;99.90
4187;DHT22;2107;52.306;10.484;2022-11-20T09:13:37;-1.30;99.90
4187;DHT22;2107;52.306;10.484;2022-11-20T09:16:06;-1.20;99.90
4187;DHT22;2107;52.306;10.484;2022-11-20T09:18:34;-1.00;99.90
4187;DHT22;2107;52.306;10.484;2022-11-20T09:21:03;-0.80;99.90
4187;DHT22;2107;52.306;10.484;2022-11-20T09:23:33;-0.40;99.90
4187;DHT22;2107;52.306;10.484;2022-11-20T09:26:02;-0.20;99.90
4187;DHT22;2107;52.306;10.484;2022-11-20T09:28:30;-0.20;99.90
4187;DHT22;2107;52.306;10.484;2022-11-20T09:30:59;0.10;99.90
4187;DHT22;2107;52.306;10.484;2022-11-20T09:33:26;0.40;99.90
4187;DHT22;2107;52.306;10.484;2022-11-20T09:35:53;0.70;99.90
4187;DHT22;2107;52.306;10.484;2022-11-20T09:38:20;0.90;99.90
4187;DHT22;2107;52.306;10.484;2022-11-20T09:40:52;1.10;99.90
4187;DHT22;2107;52.306;10.484;2022-11-20T09:43:27;1.20;99.90
4187;DHT22;2107;52.306;10.484;2022-11-20T09:46:04;1.10;99.90
4187;DHT22;2107;52.306;10.484;2022-11-20T09:48:41;1.10;99.90
4187;DHT22;2107;52.306;10.484;2022-11-20T09:51:16;1.10;99.90
4187;DHT22;2107;52.306;10.484;2022-11-20T09:53:56;1.40;99.90
4187;DHT22;2107;52.306;10.484;2022-11-20T09:56:26;1.50;99.90
4187;DHT22;2107;52.306;10.484;2022-11-20T09:58:57;1.40;99.90
4187;DHT22;2107;52.306;10.484;2022-11-20T10:01:29;1.10;99.90
4187;DHT22;2107;52.306;10.484;2022-11-20T10:04:00;0.80;99.90
4187;DHT22;2107;52.306;10.484;2022-11-20T10:06:30;0.90;99.90
4187;DHT22;2107;52.306;10.484;2022-11-20T10:09:13;1.00;99.90
4187;DHT22;2107;52.306;10.484;2022-11-20T10:11:48;1.00;99.90
4187;DHT22;2107;52.306;10.484;2022-11-20T10:14:24;1.00;99.90
4187;DHT22;2107;52.306;10.484;2022-11-20T10:17:02;1.40;99.90
4187;DHT22;2107;52.306;10.484;2022-11-20T10:19:50;1.50;99.90
4187;DHT22;2107;52.306;10.484;2022-11-20T10:22:28;1.80;99.90
4187;DHT22;2107;52.306;10.484;2022-11-20T10:25:05;1.90;99.90
4187;DHT22;2107;52.306;10.484;2022-11-20T10:30:31;1.90;99.90
4187;DHT22;2107;52.306;10.484;2022-11-20T10:33:05;2.00;99.90
4187;DHT22;2107;52.306;10.484;2022-11-20T10:35:40;1.90;99.90
4187;DHT22;2107;52.306;10.484;2022-11-20T10:38:13;1.80;99.90
4187;DHT22;2107;52.306;10.484;2022-11-20T10:40:43;1.80;99.90
4187;DHT22;2107;52.306;10.484;2022-11-20T10:43:13;2.10;99.90
4187;DHT22;2107;52.306;10.484;2022-11-20T10:45:56;1.70;99.90
4187;DHT22;2107;52.306;10.484;2022-11-20T10:48:26;2.00;99.90
4187;DHT22;2107;52.306;10.484;2022-11-20T10:51:08;2.10;99.90
4187;DHT22;2107;52.306;10.484;2022-11-20T10:53:51;2.10;99.90
4187;DHT22;2107;52.306;10.484;2022-11-20T10:56:22;1.90;99.90
4187;DHT22;2107;52.306;10.484;2022-11-20T10:59:04;1.90;99.90
4187;DHT22;2107;52.306;10.484;2022-11-20T11:01:41;2.10;99.90
4187;DHT22;2107;52.306;10.484;2022-11-20T11:04:21;2.10;99.90
4187;DHT22;2107;52.306;10.484;2022-11-20T11:06:52;1.90;99.90
4187;DHT22;2107;52.306;10.484;2022-11-20T11:09:28;1.70;99.90
4187;DHT22;2107;52.306;10.484;2022-11-20T11:11:58;1.80;99.90
4187;DHT22;2107;52.306;10.484;2022-11-20T11:14:25;2.10;99.90
4187;DHT22;2107;52.306;10.484;2022-11-20T11:16:54;2.30;99.90
4187;DHT22;2107;52.306;10.484;2022-11-20T11:19:22;2.60;99.90
4187;DHT22;2107;52.306;10.484;2022-11-20T11:21:53;2.80;99.90
4187;DHT22;2107;52.306;10.484;2022-11-20T11:24:22;2.70;99.90
4187;DHT22;2107;52.306;10.484;2022-11-20T11:26:56;3.20;99.90
4187;DHT22;2107;52.306;10.484;2022-11-20T11:29:23;3.40;99.90
4187;DHT22;2107;52.306;10.484;2022-11-20T11:32:03;3.40;99.90
4187;DHT22;2107;52.306;10.484;2022-11-20T11:34:32;3.20;99.90
4187;DHT22;2107;52.306;10.484;2022-11-20T11:37:02;3.50;99.90
4187;DHT22;2107;52.306;10.484;2022-11-20T11:39:31;3.60;99.90
4187;DHT22;2107;52.306;10.484;2022-11-20T11:42:00;4.00;99.90
4187;DHT22;2107;52.306;10.484;2022-11-20T11:44:30;4.40;99.90
4187;DHT22;2107;52.306;10.484;2022-11-20T11:47:22;4.20;99.90
4187;DHT22;2107;52.306;10.484;2022-11-20T11:50:13;4.20;99.90
4187;DHT22;2107;52.306;10.484;2022-11-20T11:52:44;4.40;99.90
4187;DHT22;2107;52.306;10.484;2022-11-20T11:55:17;4.70;99.90
4187;DHT22;2107;52.306;10.484;2022-11-20T11:57:50;4.70;99.90
4187;DHT22;2107;52.306;10.484;2022-11-20T12:00:20;4.50;99.90
4187;DHT22;2107;52.306;10.484;2022-11-20T12:02:56;4.30;99.90
4187;DHT22;2107;52.306;10.484;2022-11-20T12:05:28;4.20;99.90
4187;DHT22;2107;52.306;10.484;2022-11-20T12:07:58;4.20;99.90
4187;DHT22;2107;52.306;10.484;2022-11-20T12:10:37;3.40;99.90
4187;DHT22;2107;52.306;10.484;2022-11-20T12:13:25;3.30;99.90
4187;DHT22;2107;52.306;10.484;2022-11-20T12:15:54;2.80;99.90
4187;DHT22;2107;52.306;10.484;2022-11-20T12:18:22;2.70;99.90
4187;DHT22;2107;52.306;10.484;2022-11-20T12:20:58;2.90;99.90
4187;DHT22;2107;52.306;10.484;2022-11-20T12:23:40;3.10;99.90
4187;DHT22;2107;52.306;10.484;2022-11-20T12:26:17;3.10;99.90
4187;DHT22;2107;52.306;10.484;2022-11-20T12:28:59;3.10;99.90
4187;DHT22;2107;52.306;10.484;2022-11-20T12:31:52;2.80;99.90
4187;DHT22;2107;52.306;10.484;2022-11-20T12:34:51;2.70;99.90
4187;DHT22;2107;52.306;10.484;2022-11-20T12:37:33;2.50;99.90
4187;DHT22;2107;52.306;10.484;2022-11-20T12:40:17;2.40;99.90
4187;DHT22;2107;52.306;10.484;2022-11-20T12:42:55;2.40;99.90
4187;DHT22;2107;52.306;10.484;2022-11-20T12:45:53;2.40;99.90
4187;DHT22;2107;52.306;10.484;2022-11-20T12:48:46;2.30;99.90
4187;DHT22;2107;52.306;10.484;2022-11-20T12:51:36;2.30;99.90
4187;DHT22;2107;52.306;10.484;2022-11-20T12:54:35;2.40;99.90
4187;DHT22;2107;52.306;10.484;2022-11-20T12:57:09;2.40;99.90
4187;DHT22;2107;52.306;10.484;2022-11-20T13:00:07;2.70;99.90
4187;DHT22;2107;52.306;10.484;2022-11-20T13:05:33;2.90;99.90
4187;DHT22;2107;52.306;10.484;2022-11-20T13:08:02;3.10;99.90
4187;DHT22;2107;52.306;10.484;2022-11-20T13:10:37;3.80;99.90
4187;DHT22;2107;52.306;10.484;2022-11-20T13:13:14;4.10;99.90
4187;DHT22;2107;52.306;10.484;2022-11-20T13:15:49;4.20;99.90
4187;DHT22;2107;52.306;10.484;2022-11-20T13:18:17;4.00;99.90
4187;DHT22;2107;52.306;10.484;2022-11-20T13:20:46;3.80;99.90
4187;DHT22;2107;52.306;10.484;2022-11-20T13:23:23;3.90;99.90
4187;DHT22;2107;52.306;10.484;2022-11-20T13:26:03;3.80;99.90
4187;DHT22;2107;52.306;10.484;2022-11-20T13:28:30;3.70;99.90
4187;DHT22;2107;52.306;10.484;2022-11-20T13:30:58;3.50;99.90
4187;DHT22;2107;52.306;10.484;2022-11-20T13:33:29;3.60;99.90
4187;DHT22;2107;52.306;10.484;2022-11-20T13:35:59;3.50;99.90
4187;DHT22;2107;52.306;10.484;2022-11-20T13:38:27;3.40;99.90
4187;DHT22;2107;52.306;10.484;2022-11-20T13:40:57;3.50;99.90
4187;DHT22;2107;52.306;10.484;2022-11-20T13:43:34;3.50;99.90
4187;DHT22;2107;52.306;10.484;2022-11-20T13:46:03;3.00;99.90
4187;DHT22;2107;52.306;10.484;2022-11-20T13:48:38;2.80;99.90
4187;DHT22;2107;52.306;10.484;2022-11-20T13:51:26;2.70;99.90
4187;DHT22;2107;52.306;10.484;2022-11-20T13:54:40;2.40;99.90
4187;DHT22;2107;52.306;10.484;2022-11-20T14:00:08;2.30;99.90
4187;DHT22;2107;52.306;10.484;2022-11-20T14:02:37;2.30;99.90
4187;DHT22;2107;52.306;10.484;2022-11-20T14:05:04;2.20;99.90
4187;DHT22;2107;52.306;10.484;2022-11-20T14:07:35;2.20;99.90
4187;DHT22;2107;52.306;10.484;2022-11-20T14:10:04;2.30;99.90
4187;DHT22;2107;52.306;10.484;2022-11-20T14:12:33;2.20;99.90
4187;DHT22;2107;52.306;10.484;2022-11-20T14:15:02;2.20;99.90
4187;DHT22;2107;52.306;10.484;2022-11-20T14:17:31;2.00;99.90
4187;DHT22;2107;52.306;10.484;2022-11-20T14:20:00;2.00;99.90
4187;DHT22;2107;52.306;10.484;2022-11-20T14:22:28;1.90;99.90
4187;DHT22;2107;52.306;10.484;2022-11-20T14:25:05;1.80;99.90
4187;DHT22;2107;52.306;10.484;2022-11-20T14:27:37;1.70;99.90
4187;DHT22;2107;52.306;10.484;2022-11-20T14:30:05;1.70;99.90
4187;DHT22;2107;52.306;10.484;2022-11-20T14:32:35;1.70;99.90
4187;DHT22;2107;52.306;10.484;2022-11-20T14:35:07;1.60;99.90
4187;DHT22;2107;52.306;10.484;2022-11-20T14:37:37;1.60;99.90
4187;DHT22;2107;52.306;10.484;2022-11-20T14:40:22;1.40;99.90
4187;DHT22;2107;52.306;10.484;2022-11-20T14:42:51;1.40;99.90
4187;DHT22;2107;52.306;10.484;2022-11-20T14:45:18;1.40;99.90
4187;DHT22;2107;52.306;10.484;2022-11-20T14:47:45;1.30;99.90
4187;DHT22;2107;52.306;10.484;2022-11-20T14:50:16;1.30;99.90
4187;DHT22;2107;52.306;10.484;2022-11-20T14:52:50;1.30;99.90
4187;DHT22;2107;52.306;10.484;2022-11-20T14:55:26;1.30;99.90
4187;DHT22;2107;52.306;10.484;2022-11-20T14:57:59;1.30;99.90
4187;DHT22;2107;52.306;10.484;2022-11-20T15:00:27;1.20;99.90
4187;DHT22;2107;52.306;10.484;2022-11-20T15:02:54;1.20;99.90
4187;DHT22;2107;52.306;10.484;2022-11-20T15:05:23;1.10;99.90
4187;DHT22;2107;52.306;10.484;2022-11-20T15:07:52;1.10;99.90
4187;DHT22;2107;52.306;10.484;2022-11-20T15:10:30;1.00;99.90
4187;DHT22;2107;52.306;10.484;2022-11-20T15:13:01;0.90;99.90
4187;DHT22;2107;52.306;10.484;2022-11-20T15:15:31;0.80;99.90
4187;DHT22;2107;52.306;10.484;2022-11-20T15:17:59;0.90;99.90
4187;DHT22;2107;52.306;10.484;2022-11-20T15:20:30;0.80;99.90
4187;DHT22;2107;52.306;10.484;2022-11-20T15:22:57;0.90;99.90
4187;DHT22;2107;52.306;10.484;2022-11-20T15:25:24;0.80;99.90
4187;DHT22;2107;52.306;10.484;2022-11-20T15:27:54;0.70;99.90
4187;DHT22;2107;52.306;10.484;2022-11-20T15:30:23;0.60;99.90
4187;DHT22;2107;52.306;10.484;2022-11-20T15:32:51;0.50;99.90
4187;DHT22;2107;52.306;10.484;2022-11-20T15:35:18;0.40;99.90
4187;DHT22;2107;52.306;10.484;2022-11-20T15:37:45;0.40;99.90
4187;DHT22;2107;52.306;10.484;2022-11-20T15:40:12;0.30;99.90
4187;DHT22;2107;52.306;10.484;2022-11-20T15:42:39;0.20;99.90
4187;DHT22;2107;52.306;10.484;2022-11-20T15:45:29;0.10;99.90
4187;DHT22;2107;52.306;10.484;2022-11-20T15:47:57;0.00;99.90
4187;DHT22;2107;52.306;10.484;2022-11-20T15:50:34;-0.10;99.90
4187;DHT22;2107;52.306;10.484;2022-11-20T15:53:02;-0.20;99.90
4187;DHT22;2107;52.306;10.484;2022-11-20T15:55:30;-0.30;99.90
4187;DHT22;2107;52.306;10.484;2022-11-20T15:57:57;-0.40;99.90
4187;DHT22;2107;52.306;10.484;2022-11-20T16:00:24;-0.50;99.90
4187;DHT22;2107;52.306;10.484;2022-11-20T16:02:52;-0.50;99.90
4187;DHT22;2107;52.306;10.484;2022-11-20T16:05:19;-0.60;99.90
4187;DHT22;2107;52.306;10.484;2022-11-20T16:07:48;-0.70;99.90
4187;DHT22;2107;52.306;10.484;2022-11-20T16:10:15;-0.70;99.90
4187;DHT22;2107;52.306;10.484;2022-11-20T16:12:42;-0.70;99.90
4187;DHT22;2107;52.306;10.484;2022-11-20T16:15:26;-0.70;99.90
4187;DHT22;2107;52.306;10.484;2022-11-20T16:18:16;-0.70;99.90
4187;DHT22;2107;52.306;10.484;2022-11-20T16:20:45;-0.70;99.90
4187;DHT22;2107;52.306;10.484;2022-11-20T16:23:12;-0.60;99.90